createdAt,value
2019-03-22T00:00:46.881Z,620.83
2019-03-22T00:03:16.338Z,583.33
2019-03-22T00:05:46.504Z,612.40
2019-03-22T00:08:15.976Z,711.95
2019-03-22T00:10:45.412Z,747.85
2019-03-22T00:13:14.818Z,991.17
2019-03-22T00:15:44.420Z,976.22
2019-03-22T00:18:13.829Z,889.60
2019-03-22T00:20:43.252Z,1414.68
2019-03-22T00:23:12.740Z,1266.48
2019-03-22T00:25:42.146Z,860.65
2019-03-22T00:28:11.620Z,744.37
2019-03-22T02:23:21.363Z,1117.20
2019-03-22T02:25:50.953Z,1186.80
2019-03-22T02:28:20.654Z,906.17
2019-03-22T02:30:50.146Z,878.95
2019-03-22T02:33:19.606Z,1189.42
2019-03-22T02:35:49.070Z,1283.75
2019-03-22T02:38:18.747Z,962.35
2019-03-22T02:40:48.220Z,1189.23
2019-03-22T02:43:17.784Z,1432.63
2019-03-22T02:45:47.308Z,868.35
2019-03-22T02:48:16.932Z,1493.43
2019-03-22T02:50:46.405Z,1092.13
2019-03-22T02:53:15.921Z,1286.58
2019-03-22T02:55:45.878Z,1026.22
2019-03-22T02:58:20.938Z,819.97
2019-03-22T03:00:46.695Z,1246.03
2019-03-22T03:03:16.154Z,981.17
2019-03-22T03:05:45.616Z,806.72
2019-03-22T03:08:15.535Z,903.77
2019-03-22T03:10:44.934Z,1181.78
2019-03-22T03:13:14.457Z,1353.40
2019-03-22T03:15:44.048Z,1315.47
2019-03-22T03:18:15.230Z,839.35
2019-03-22T03:20:44.613Z,892.00
2019-03-22T03:23:14.056Z,883.98
2019-03-22T03:25:43.514Z,901.82
2019-03-22T03:28:12.959Z,1199.80
2019-03-22T03:30:42.351Z,883.60
2019-03-22T03:33:11.809Z,1130.35
2019-03-22T03:35:41.290Z,1287.47
2019-03-22T03:38:11.677Z,1355.88
2019-03-22T03:40:42.295Z,1150.75
2019-03-22T03:43:11.816Z,1328.80
2019-03-22T03:45:41.841Z,1154.78
2019-03-22T03:48:11.578Z,1272.78
2019-03-22T03:50:42.123Z,866.32
2019-03-22T03:53:11.497Z,822.00
2019-03-22T03:55:40.911Z,1422.45
2019-03-22T03:58:10.457Z,773.75
2019-03-22T04:00:39.941Z,743.75
2019-03-22T04:03:09.395Z,1080.85
2019-03-22T04:05:39.916Z,1043.88
2019-03-22T04:08:09.313Z,1116.98
2019-03-22T04:10:38.684Z,1113.58
2019-03-22T04:13:08.091Z,1405.42
2019-03-22T04:15:37.857Z,1177.83
2019-03-22T04:18:08.773Z,1218.45
2019-03-22T04:20:38.485Z,1379.00
2019-03-22T04:23:07.888Z,954.65
2019-03-22T04:25:37.429Z,991.45
2019-03-22T04:28:06.777Z,984.47
2019-03-22T04:30:37.145Z,1048.80
2019-03-22T04:33:07.024Z,1097.90
2019-03-22T04:35:37.872Z,1580.33
2019-03-22T04:38:07.233Z,1160.00
2019-03-22T04:40:36.685Z,1274.93
2019-03-22T04:43:06.157Z,1336.03
2019-03-22T04:45:36.905Z,1122.23
2019-03-22T04:48:12.334Z,1315.05
2019-03-22T04:50:43.553Z,1187.53
2019-03-22T04:53:16.092Z,1179.60
2019-03-22T04:55:48.182Z,1607.58
2019-03-22T04:58:19.180Z,1495.92
2019-03-22T05:00:48.991Z,1139.15
2019-03-22T05:03:20.372Z,1303.13
2019-03-22T05:05:51.677Z,1030.00
2019-03-22T05:08:22.690Z,1125.45
2019-03-22T05:10:53.638Z,1265.00
2019-03-22T05:13:25.106Z,1506.70
2019-03-22T05:15:55.816Z,1957.65
2019-03-22T05:18:26.836Z,1281.45
2019-03-22T05:20:56.406Z,821.42
2019-03-22T05:23:26.601Z,1182.55
2019-03-22T05:25:58.795Z,1027.55
2019-03-22T05:28:30.452Z,1256.38
2019-03-22T05:31:23.996Z,1048.68
2019-03-22T05:33:54.892Z,1122.40
2019-03-22T05:36:24.293Z,1382.40
2019-03-22T05:38:53.761Z,1336.88
2019-03-22T05:41:23.162Z,1642.33
2019-03-22T05:43:52.536Z,1137.35
2019-03-22T05:46:24.859Z,1270.80
2019-03-22T05:48:54.239Z,1233.60
2019-03-22T05:51:23.711Z,1329.95
2019-03-22T05:53:53.094Z,1339.93
2019-03-22T05:56:22.639Z,853.65
2019-03-22T05:58:52.103Z,725.10
2019-03-22T06:01:21.557Z,1393.28
2019-03-22T06:03:50.916Z,1531.15
2019-03-22T06:06:20.638Z,1188.43
2019-03-22T06:08:50.128Z,1098.63
2019-03-22T06:11:19.518Z,1347.13
2019-03-22T06:13:48.882Z,1009.60
2019-03-22T06:16:18.491Z,864.48
2019-03-22T06:18:50.359Z,1087.03
2019-03-22T06:21:18.995Z,1372.00
2019-03-22T06:23:48.393Z,847.87
2019-03-22T06:26:17.737Z,698.78
2019-03-22T06:28:47.106Z,1116.55
2019-03-22T06:31:16.509Z,852.22
2019-03-22T06:33:46.032Z,719.77
2019-03-22T06:36:15.382Z,932.67
2019-03-22T06:38:44.768Z,869.85
2019-03-22T06:41:14.192Z,821.52
2019-03-22T06:43:44.617Z,640.80
2019-03-22T06:46:14.009Z,738.92
2019-03-22T06:48:43.528Z,762.15
2019-03-22T06:51:12.882Z,921.12
2019-03-22T06:53:42.661Z,726.10
2019-03-22T06:56:12.024Z,1006.17
2019-03-22T06:58:41.393Z,833.73
2019-03-22T07:01:10.793Z,805.03
2019-03-22T07:03:40.217Z,697.40
2019-03-22T07:06:09.714Z,868.28
2019-03-22T07:08:39.100Z,896.67
2019-03-22T07:11:08.530Z,1032.13
2019-03-22T07:13:38.122Z,1068.72
2019-03-22T07:16:07.514Z,822.20
2019-03-22T07:18:36.875Z,801.82
2019-03-22T07:21:06.225Z,688.92
2019-03-22T07:23:35.624Z,553.92
2019-03-22T07:26:05.072Z,653.77
2019-03-22T07:28:34.493Z,508.95
2019-03-22T07:31:03.930Z,662.00
2019-03-22T07:33:33.472Z,593.08
2019-03-22T07:36:02.900Z,597.10
2019-03-22T07:38:32.267Z,762.38
2019-03-22T07:41:01.729Z,454.40
2019-03-22T07:43:31.252Z,595.12
2019-03-22T07:46:00.638Z,546.20
2019-03-22T07:48:31.655Z,451.50
2019-03-22T07:51:01.070Z,717.10
2019-03-22T07:53:30.609Z,679.05
2019-03-22T07:56:00.029Z,341.48
2019-03-22T07:58:29.584Z,337.50
2019-03-22T08:00:58.937Z,323.32
2019-03-22T08:03:28.321Z,289.57
2019-03-22T08:05:57.682Z,328.23
2019-03-22T08:08:27.072Z,271.00
2019-03-22T08:10:56.483Z,263.75
2019-03-22T08:13:25.864Z,276.75
2019-03-22T08:15:57.471Z,236.40
2019-03-22T08:18:26.536Z,283.52
2019-03-22T08:20:56.099Z,222.88
2019-03-22T08:23:25.517Z,216.80
2019-03-22T08:25:55.017Z,209.52
2019-03-22T08:28:24.413Z,185.90
2019-03-22T08:30:54.836Z,212.90
2019-03-22T08:33:24.299Z,223.15
2019-03-22T08:35:53.661Z,201.67
2019-03-22T08:38:23.145Z,186.32
2019-03-22T08:41:05.028Z,176.40
2019-03-22T08:43:34.557Z,239.00
2019-03-22T08:46:04.925Z,258.20
2019-03-22T08:48:34.571Z,246.18
2019-03-22T08:51:04.053Z,205.05
2019-03-22T08:53:33.505Z,232.87
2019-03-22T08:56:02.896Z,218.25
2019-03-22T08:58:32.267Z,340.25
2019-03-22T09:01:01.879Z,228.52
2019-03-22T09:03:31.460Z,224.82
2019-03-22T09:06:01.129Z,249.98
2019-03-22T09:08:30.557Z,212.82
2019-03-22T09:11:00.088Z,187.22
2019-03-22T09:13:29.842Z,192.40
2019-03-22T09:15:59.279Z,178.95
2019-03-22T09:18:28.749Z,177.93
2019-03-22T09:20:58.201Z,163.45
2019-03-22T09:23:27.771Z,169.57
2019-03-22T09:25:57.289Z,162.18
2019-03-22T09:28:45.885Z,162.88
2019-03-22T09:31:17.138Z,161.88
2019-03-22T09:33:46.779Z,168.35
2019-03-22T09:36:16.179Z,166.70
2019-03-22T09:38:45.643Z,154.32
2019-03-22T09:41:15.153Z,160.37
2019-03-22T09:43:44.700Z,160.37
2019-03-22T09:46:14.198Z,164.32
2019-03-22T09:48:43.730Z,150.62
2019-03-22T09:51:13.419Z,161.37
2019-03-22T09:53:42.918Z,167.90
2019-03-22T09:56:13.514Z,191.40
2019-03-22T09:58:43.001Z,224.65
2019-03-22T10:01:23.145Z,212.12
2019-03-22T10:03:43.672Z,189.07
2019-03-22T10:06:14.225Z,196.43
2019-03-22T10:08:43.780Z,173.30
2019-03-22T10:11:14.296Z,174.45
2019-03-22T10:13:43.912Z,167.90
2019-03-22T10:16:13.434Z,174.50
2019-03-22T10:18:42.856Z,175.38
2019-03-22T10:21:21.856Z,168.13
2019-03-22T10:23:43.328Z,158.40
2019-03-22T10:26:13.995Z,148.28
2019-03-22T10:28:44.153Z,139.85
2019-03-22T10:31:13.700Z,140.45
2019-03-22T10:33:43.339Z,126.42
2019-03-22T10:36:12.870Z,123.07
2019-03-22T10:38:42.397Z,112.60
2019-03-22T10:41:12.000Z,106.20
2019-03-22T10:43:41.501Z,103.75
2019-03-22T10:46:11.045Z,102.40
2019-03-22T10:48:40.881Z,97.67
2019-03-22T10:51:10.745Z,99.83
2019-03-22T10:53:40.334Z,102.58
2019-03-22T10:56:09.764Z,103.40
2019-03-22T10:58:40.123Z,102.12
2019-03-22T11:01:09.581Z,101.58
2019-03-22T11:03:39.361Z,101.27
2019-03-22T11:06:09.582Z,98.97
2019-03-22T11:08:38.993Z,100.95
2019-03-22T11:11:08.555Z,102.35
2019-03-22T11:13:38.030Z,92.15
2019-03-22T11:16:10.915Z,94.13
2019-03-22T11:18:40.376Z,94.67
2019-03-22T11:21:09.858Z,94.85
2019-03-22T11:23:39.326Z,91.65
2019-03-22T11:26:08.894Z,88.25
2019-03-22T11:28:38.392Z,84.25
2019-03-22T11:31:08.289Z,89.37
2019-03-22T11:33:37.902Z,86.47
2019-03-22T11:36:07.482Z,83.20
2019-03-22T11:38:37.293Z,82.30
2019-03-22T11:41:06.915Z,84.00
2019-03-22T11:43:36.453Z,86.57
2019-03-22T11:46:06.359Z,85.00
2019-03-22T11:48:35.853Z,83.03
2019-03-22T11:51:05.630Z,83.47
2019-03-22T11:53:35.161Z,79.45
2019-03-22T11:56:05.190Z,83.60
2019-03-22T11:58:34.690Z,82.00
2019-03-22T12:01:04.324Z,83.25
2019-03-22T12:03:34.109Z,73.97
2019-03-22T12:06:03.681Z,74.92
2019-03-22T12:08:33.214Z,75.28
2019-03-22T12:11:02.725Z,72.42
2019-03-22T12:13:34.709Z,75.52
2019-03-22T12:16:04.496Z,72.85
2019-03-22T12:18:34.107Z,77.37
2019-03-22T12:21:03.717Z,75.08
2019-03-22T12:23:33.116Z,67.00
2019-03-22T12:26:02.593Z,61.28
2019-03-22T12:28:32.158Z,66.28
2019-03-22T12:31:01.895Z,64.80
2019-03-22T12:33:31.340Z,64.10
2019-03-22T12:36:00.827Z,61.37
2019-03-22T12:38:31.290Z,56.98
2019-03-22T12:41:00.670Z,55.35
2019-03-22T12:43:31.187Z,59.20
2019-03-22T12:46:00.637Z,57.35
2019-03-22T12:48:30.219Z,59.03
2019-03-22T12:51:01.406Z,60.20
2019-03-22T12:53:30.968Z,55.90
2019-03-22T12:56:00.441Z,58.73
2019-03-22T12:58:30.879Z,60.90
2019-03-22T13:01:00.260Z,59.90
2019-03-22T13:03:29.633Z,55.30
2019-03-22T13:05:59.036Z,57.17
2019-03-22T13:08:28.523Z,53.78
2019-03-22T13:10:58.008Z,53.15
2019-03-22T13:13:28.424Z,50.73
2019-03-22T13:15:58.162Z,52.55
2019-03-22T13:18:27.708Z,51.25
2019-03-22T13:20:57.244Z,48.45
2019-03-22T13:23:26.749Z,59.40
2019-03-22T13:25:56.233Z,61.40
2019-03-22T13:28:25.598Z,61.53
2019-03-22T13:30:55.026Z,61.75
2019-03-22T13:33:24.544Z,60.63
2019-03-22T13:35:55.483Z,58.45
2019-03-22T13:38:25.008Z,60.80
2019-03-22T13:40:54.422Z,62.53
2019-03-22T13:43:23.972Z,56.77
2019-03-22T13:45:53.465Z,55.17
2019-03-22T13:48:22.968Z,54.35
2019-03-22T13:50:52.498Z,52.03
2019-03-22T13:53:22.766Z,57.83
2019-03-22T13:55:52.440Z,52.05
2019-03-22T13:58:21.875Z,52.67
2019-03-22T14:00:51.420Z,49.15
2019-03-22T14:03:20.822Z,47.08
2019-03-22T14:05:51.719Z,49.40
2019-03-22T14:08:21.553Z,49.95
2019-03-22T14:10:50.955Z,47.48
2019-03-22T14:13:20.452Z,46.70
2019-03-22T14:15:49.956Z,44.80
2019-03-22T14:18:19.398Z,42.48
2019-03-22T14:20:50.162Z,43.00
2019-03-22T14:23:19.619Z,41.85
2019-03-22T14:25:48.971Z,40.48
2019-03-22T14:28:18.534Z,49.63
2019-03-22T14:30:48.433Z,52.48
2019-03-22T14:33:19.457Z,49.05
2019-03-22T14:35:48.858Z,46.88
2019-03-22T14:38:18.431Z,47.75
2019-03-22T14:40:47.836Z,50.12
2019-03-22T14:43:17.208Z,49.53
2019-03-22T14:45:46.689Z,52.73
2019-03-22T14:48:16.096Z,52.67
2019-03-22T14:50:46.445Z,51.98
2019-03-22T14:53:16.193Z,48.87
2019-03-22T14:55:45.772Z,55.25
2019-03-22T14:58:15.348Z,54.33
2019-03-22T15:00:44.953Z,53.55
2019-03-22T15:03:27.700Z,56.48
2019-03-22T15:05:57.472Z,55.55
2019-03-22T15:08:27.218Z,56.77
2019-03-22T15:10:58.144Z,59.60
2019-03-22T15:13:29.251Z,54.03
2019-03-22T15:16:16.754Z,59.98
2019-03-22T15:18:50.704Z,60.43
2019-03-22T15:21:25.125Z,59.75
2019-03-22T15:24:12.609Z,57.15
2019-03-22T15:27:00.210Z,53.02
2019-03-22T15:29:31.248Z,55.25
2019-03-22T15:32:02.374Z,54.98
2019-03-22T15:34:49.922Z,50.92
2019-03-22T15:37:23.911Z,53.52
2019-03-22T15:40:03.188Z,51.73
2019-03-22T15:42:33.712Z,52.75
2019-03-22T15:45:04.143Z,50.90
2019-03-22T15:47:33.594Z,53.52
2019-03-22T15:50:03.268Z,50.75
2019-03-22T15:52:32.771Z,49.38
2019-03-22T15:55:02.421Z,51.08
2019-03-22T15:57:32.682Z,51.53
2019-03-22T16:00:02.756Z,50.55
2019-03-22T16:02:33.461Z,52.23
2019-03-22T16:05:03.248Z,55.70
2019-03-22T16:07:45.638Z,52.90
2019-03-22T16:10:36.848Z,54.33
2019-03-22T16:13:15.293Z,56.33
2019-03-22T16:15:57.805Z,54.75
2019-03-22T16:18:37.893Z,54.70
2019-03-22T16:21:07.782Z,55.65
2019-03-22T16:23:37.290Z,46.85
2019-03-22T16:26:06.882Z,52.45
2019-03-22T16:28:36.423Z,43.70
2019-03-22T16:31:05.904Z,40.92
2019-03-22T16:33:35.329Z,43.55
2019-03-22T16:36:04.898Z,42.30
2019-03-22T16:38:34.325Z,44.42
2019-03-22T16:41:03.718Z,42.93
2019-03-22T16:43:34.664Z,41.70
2019-03-22T16:46:04.307Z,46.77
2019-03-22T16:48:34.496Z,40.48
2019-03-22T16:51:04.240Z,47.00
2019-03-22T16:53:33.620Z,61.20
2019-03-22T16:56:03.174Z,65.67
2019-03-22T16:58:32.558Z,72.30
2019-03-22T17:01:02.321Z,77.08
2019-03-22T17:03:33.046Z,73.97
2019-03-22T17:06:02.482Z,80.32
2019-03-22T17:08:32.103Z,77.15
2019-03-22T17:11:01.537Z,78.52
2019-03-22T17:13:31.050Z,75.20
2019-03-22T17:16:02.032Z,74.95
2019-03-22T17:18:40.208Z,79.15
2019-03-22T17:21:22.473Z,77.40
2019-03-22T17:23:55.488Z,82.82
2019-03-22T17:26:25.161Z,82.33
2019-03-22T17:28:55.393Z,80.60
2019-03-22T17:31:25.279Z,77.40
2019-03-22T17:33:55.196Z,77.22
2019-03-22T17:36:24.580Z,78.10
2019-03-22T17:38:54.544Z,78.55
2019-03-22T17:41:24.054Z,88.97
2019-03-22T17:43:53.493Z,81.00
2019-03-22T17:46:22.936Z,86.75
2019-03-22T17:48:52.412Z,85.05
2019-03-22T17:51:21.901Z,96.57
2019-03-22T17:53:51.492Z,91.50
2019-03-22T17:56:21.116Z,96.60
2019-03-22T17:58:50.587Z,98.17
2019-03-22T18:01:20.137Z,100.40
2019-03-22T18:03:49.662Z,100.00
2019-03-22T18:06:20.307Z,96.17
2019-03-22T18:08:49.794Z,105.52
2019-03-22T18:11:20.986Z,107.43
2019-03-22T18:13:50.683Z,109.35
2019-03-22T18:16:20.275Z,107.87
2019-03-22T18:18:49.888Z,108.97
2019-03-22T18:21:19.551Z,112.20
2019-03-22T18:23:49.181Z,127.95
2019-03-22T18:26:20.559Z,128.50
2019-03-22T18:28:49.921Z,146.62
2019-03-22T18:31:19.493Z,163.85
2019-03-22T18:33:49.016Z,173.62
2019-03-22T18:36:20.358Z,178.20
2019-03-22T18:38:49.815Z,184.37
2019-03-22T18:41:19.355Z,181.55
2019-03-22T18:43:48.819Z,183.55
2019-03-22T18:46:18.530Z,187.30
2019-03-22T18:48:48.110Z,191.15
2019-03-22T18:51:17.582Z,187.57
2019-03-22T18:53:47.048Z,196.47
2019-03-22T18:56:16.524Z,207.00
2019-03-22T18:58:45.906Z,192.10
2019-03-22T19:01:17.050Z,203.98
2019-03-22T19:03:46.717Z,213.50
2019-03-22T19:06:16.321Z,217.10
2019-03-22T19:08:45.800Z,225.28
2019-03-22T19:11:15.309Z,210.63
2019-03-22T19:13:45.841Z,215.68
2019-03-22T19:16:15.298Z,205.18
2019-03-22T19:18:44.744Z,201.42
2019-03-22T19:21:15.412Z,211.65
2019-03-22T19:23:44.817Z,225.45
2019-03-22T19:26:14.265Z,217.60
2019-03-22T19:28:43.804Z,232.30
2019-03-22T19:31:13.288Z,240.45
2019-03-22T19:33:42.845Z,237.15
2019-03-22T19:36:12.415Z,259.15
2019-03-22T19:38:41.934Z,301.40
2019-03-22T19:41:11.344Z,314.80
2019-03-22T19:43:40.780Z,326.50
2019-03-22T19:46:11.711Z,320.57
2019-03-22T19:48:41.125Z,317.90
2019-03-22T19:51:10.520Z,318.30
2019-03-22T19:53:40.131Z,354.02
2019-03-22T19:56:09.559Z,396.30
2019-03-22T19:58:39.023Z,396.65
2019-03-22T20:01:08.606Z,391.82
2019-03-22T20:03:38.103Z,338.32
2019-03-22T20:06:07.921Z,369.90
2019-03-22T20:08:37.407Z,358.82
2019-03-22T20:11:06.872Z,419.62
2019-03-22T20:13:36.282Z,379.13
2019-03-22T20:16:05.751Z,525.15
2019-03-22T20:18:35.270Z,556.50
2019-03-22T20:21:04.888Z,562.52
2019-03-22T20:23:35.880Z,418.48
2019-03-22T20:26:05.404Z,450.48
2019-03-22T20:28:34.977Z,522.10
2019-03-22T20:31:04.759Z,456.60
2019-03-22T20:33:35.695Z,565.28
2019-03-22T20:36:05.314Z,434.83
2019-03-22T20:38:34.909Z,428.82
2019-03-22T20:41:04.780Z,430.37
2019-03-22T20:43:34.426Z,385.75
2019-03-22T20:46:04.005Z,337.77
2019-03-22T20:48:34.577Z,365.05
2019-03-22T20:51:04.065Z,427.93
2019-03-22T20:53:33.654Z,440.65
2019-03-22T20:56:03.061Z,457.98
2019-03-22T20:58:34.290Z,532.65
2019-03-22T21:01:03.693Z,494.07
2019-03-22T21:03:33.114Z,503.42
2019-03-22T21:06:04.446Z,482.02
2019-03-22T21:08:35.462Z,411.15
2019-03-22T21:11:05.199Z,470.18
2019-03-22T21:13:34.596Z,443.27
2019-03-22T21:16:04.013Z,475.83
2019-03-22T21:18:33.505Z,481.85
2019-03-22T21:21:03.040Z,487.05
2019-03-22T21:23:36.659Z,523.30
2019-03-22T21:26:03.638Z,411.12
2019-03-22T21:28:33.064Z,487.55
2019-03-22T21:31:02.508Z,421.93
2019-03-22T21:33:31.870Z,448.00
2019-03-22T21:36:01.413Z,435.45
2019-03-22T21:38:30.832Z,494.02
2019-03-22T21:41:00.211Z,463.93
2019-03-22T21:43:29.648Z,472.57
2019-03-22T21:45:59.118Z,470.98
2019-03-22T21:48:28.480Z,453.88
2019-03-22T21:50:57.945Z,444.62
2019-03-22T21:53:27.293Z,431.97
2019-03-22T21:55:56.671Z,403.82
2019-03-22T21:58:26.037Z,408.68
2019-03-22T22:00:55.909Z,420.32
2019-03-22T22:03:25.260Z,414.02
2019-03-22T22:05:54.657Z,403.50
2019-03-22T22:08:24.135Z,384.40
2019-03-22T22:10:59.779Z,365.10
2019-03-22T22:13:26.810Z,367.35
2019-03-22T22:15:59.848Z,320.67
2019-03-22T22:21:00.003Z,315.57
2019-03-22T22:23:29.575Z,338.98
2019-03-22T22:25:59.209Z,313.27
2019-03-22T22:28:30.148Z,319.65
2019-03-22T22:30:59.626Z,317.75
2019-03-22T22:33:30.897Z,336.07
2019-03-22T22:36:00.520Z,336.45
2019-03-22T22:38:29.903Z,325.60
2019-03-22T22:40:59.349Z,335.63
2019-03-22T22:43:28.712Z,333.20
2019-03-22T22:45:58.229Z,340.57
2019-03-22T22:48:27.652Z,280.42
2019-03-22T22:50:57.029Z,269.13
2019-03-22T22:53:26.403Z,260.55
2019-03-22T22:55:55.961Z,261.75
2019-03-22T22:58:25.348Z,262.38
2019-03-22T23:00:55.051Z,275.80
2019-03-22T23:03:26.059Z,254.78
2019-03-22T23:05:55.997Z,265.77
2019-03-22T23:08:25.373Z,265.90
2019-03-22T23:10:55.829Z,248.00
2019-03-22T23:13:25.206Z,225.93
2019-03-22T23:15:54.628Z,195.55
2019-03-22T23:18:24.096Z,211.87
2019-03-22T23:20:53.533Z,188.07
2019-03-22T23:23:22.985Z,186.82
2019-03-22T23:25:52.432Z,186.07
2019-03-22T23:28:21.881Z,179.63
2019-03-22T23:30:51.298Z,194.07
2019-03-22T23:33:20.764Z,200.70
2019-03-22T23:35:50.679Z,196.75
2019-03-22T23:38:20.252Z,203.95
2019-03-22T23:40:50.333Z,197.82
2019-03-22T23:43:19.789Z,194.25
2019-03-22T23:45:49.217Z,188.22
2019-03-22T23:48:18.681Z,184.95
2019-03-22T23:50:48.184Z,183.47
2019-03-22T23:53:17.622Z,168.15
2019-03-22T23:55:47.088Z,166.45
2019-03-22T23:58:16.628Z,156.40
